createdAt,value
2019-05-11T00:00:35.343Z,1.97
2019-05-11T00:03:05.121Z,1.50
2019-05-11T00:05:34.822Z,2.23
2019-05-11T00:08:04.624Z,1.67
2019-05-11T00:10:34.477Z,1.50
2019-05-11T00:13:06.108Z,1.50
2019-05-11T00:15:35.882Z,1.90
2019-05-11T00:18:05.598Z,1.37
2019-05-11T00:20:35.361Z,2.00
2019-05-11T00:23:05.033Z,1.47
2019-05-11T00:25:34.818Z,1.10
2019-05-11T00:28:04.632Z,1.87
2019-05-11T00:30:34.642Z,2.27
2019-05-11T00:33:04.333Z,1.50
2019-05-11T00:35:34.065Z,1.73
2019-05-11T00:38:03.822Z,1.53
2019-05-11T00:40:33.547Z,1.40
2019-05-11T00:43:03.300Z,2.40
2019-05-11T00:45:33.062Z,1.50
2019-05-11T00:48:02.855Z,1.30
2019-05-11T00:50:39.267Z,1.67
2019-05-11T00:53:03.991Z,1.70
2019-05-11T00:55:33.656Z,1.30
2019-05-11T00:58:03.414Z,3.47
2019-05-11T01:00:33.099Z,1.30
2019-05-11T01:03:02.782Z,1.50
2019-05-11T01:05:32.497Z,1.43
2019-05-11T01:08:02.383Z,1.40
2019-05-11T01:10:41.804Z,1.13
2019-05-11T01:13:03.661Z,1.73
2019-05-11T01:15:33.787Z,1.80
2019-05-11T01:18:03.609Z,1.30
2019-05-11T01:20:33.357Z,1.97
2019-05-11T01:23:03.149Z,1.10
2019-05-11T01:25:32.892Z,1.20
2019-05-11T01:28:02.765Z,3.33
2019-05-11T01:30:32.582Z,1.13
2019-05-11T01:33:02.360Z,1.60
2019-05-11T01:35:32.372Z,1.80
2019-05-11T01:38:02.173Z,4.23
2019-05-11T01:40:32.109Z,1.57
2019-05-11T01:43:02.219Z,1.30
2019-05-11T01:45:32.077Z,1.30
2019-05-11T01:48:01.816Z,1.00
2019-05-11T01:50:31.554Z,2.37
2019-05-11T01:53:01.262Z,1.50
2019-05-11T01:55:31.510Z,2.20
2019-05-11T01:58:01.577Z,1.10
2019-05-11T02:00:32.233Z,1.73
2019-05-11T02:03:02.013Z,5.77
2019-05-11T02:05:32.054Z,1.37
2019-05-11T02:08:02.591Z,3.03
2019-05-11T02:10:32.470Z,1.53
2019-05-11T02:13:02.273Z,1.80
2019-05-11T02:15:31.952Z,1.30
2019-05-11T02:18:01.737Z,2.27
2019-05-11T02:20:31.487Z,2.63
2019-05-11T02:23:01.228Z,2.90
2019-05-11T02:25:30.886Z,1.67
2019-05-11T02:28:00.562Z,1.83
2019-05-11T02:30:30.272Z,3.63
2019-05-11T02:32:59.965Z,4.43
2019-05-11T02:35:29.676Z,1.27
2019-05-11T02:37:59.406Z,1.20
2019-05-11T02:40:29.336Z,1.73
2019-05-11T02:42:59.099Z,1.67
2019-05-11T02:45:34.236Z,1.73
2019-05-11T02:48:04.015Z,4.20
2019-05-11T02:50:34.306Z,2.07
2019-05-11T02:53:04.218Z,1.83
2019-05-11T02:55:34.390Z,2.07
2019-05-11T02:58:04.773Z,1.60
2019-05-11T03:00:38.514Z,1.70
2019-05-11T03:03:08.316Z,1.90
2019-05-11T03:05:37.996Z,1.73
2019-05-11T03:08:07.779Z,2.97
2019-05-11T03:10:37.816Z,1.90
2019-05-11T03:13:07.792Z,2.53
2019-05-11T03:15:37.509Z,2.23
2019-05-11T03:18:07.191Z,3.37
2019-05-11T03:20:36.916Z,2.93
2019-05-11T03:23:07.347Z,2.23
2019-05-11T03:25:37.524Z,1.93
2019-05-11T03:28:07.299Z,2.20
2019-05-11T03:30:37.166Z,2.50
2019-05-11T03:33:06.850Z,2.60
2019-05-11T03:35:36.548Z,1.70
2019-05-11T03:38:06.362Z,4.87
2019-05-11T03:40:36.304Z,1.63
2019-05-11T03:43:06.018Z,2.90
2019-05-11T03:45:36.881Z,5.27
2019-05-11T03:48:06.613Z,2.33
2019-05-11T03:50:36.311Z,3.20
2019-05-11T03:53:06.027Z,2.30
2019-05-11T03:55:35.770Z,4.00
2019-05-11T03:58:05.579Z,4.17
2019-05-11T04:00:35.656Z,2.93
2019-05-11T04:03:05.431Z,3.37
2019-05-11T04:05:35.149Z,2.90
2019-05-11T04:08:04.921Z,3.17
2019-05-11T04:10:34.672Z,2.97
2019-05-11T04:13:04.367Z,3.53
2019-05-11T04:15:34.418Z,1.90
2019-05-11T04:18:04.231Z,1.27
2019-05-11T04:20:34.102Z,1.10
2019-05-11T04:23:03.922Z,1.77
2019-05-11T04:25:33.646Z,5.00
2019-05-11T04:28:03.340Z,2.53
2019-05-11T04:30:33.119Z,1.37
2019-05-11T04:33:02.915Z,2.50
2019-05-11T04:35:32.729Z,1.37
2019-05-11T04:38:02.729Z,1.70
2019-05-11T04:40:32.524Z,1.33
2019-05-11T04:43:02.295Z,1.90
2019-05-11T04:45:34.178Z,1.20
2019-05-11T04:48:05.070Z,1.30
2019-05-11T04:50:34.933Z,1.33
2019-05-11T04:53:04.640Z,1.97
2019-05-11T04:55:34.510Z,1.57
2019-05-11T04:58:04.297Z,1.23
2019-05-11T05:00:34.023Z,1.30
2019-05-11T05:03:04.149Z,1.30
2019-05-11T05:05:33.945Z,1.50
2019-05-11T05:08:09.794Z,1.37
2019-05-11T05:10:35.165Z,1.50
2019-05-11T05:13:10.678Z,1.87
2019-05-11T05:15:36.526Z,0.77
2019-05-11T05:18:06.406Z,0.90
2019-05-11T05:20:36.143Z,3.77
2019-05-11T05:23:05.957Z,1.00
2019-05-11T05:25:35.635Z,1.07
2019-05-11T05:28:05.730Z,1.20
2019-05-11T05:30:35.505Z,1.23
2019-05-11T05:33:05.368Z,0.60
2019-05-11T05:35:35.316Z,1.27
2019-05-11T05:38:05.357Z,1.57
2019-05-11T05:40:35.030Z,1.97
2019-05-11T05:43:04.961Z,3.80
2019-05-11T05:45:34.755Z,0.90
2019-05-11T05:48:04.826Z,1.00
2019-05-11T05:50:34.721Z,1.10
2019-05-11T05:53:04.458Z,3.00
2019-05-11T05:55:34.305Z,1.67
2019-05-11T05:58:04.109Z,1.03
2019-05-11T06:00:33.914Z,1.53
2019-05-11T06:03:04.116Z,1.37
2019-05-11T06:05:33.915Z,1.37
2019-05-11T06:08:03.602Z,1.17
2019-05-11T06:10:33.393Z,1.13
2019-05-11T06:13:03.244Z,0.97
2019-05-11T06:15:32.966Z,1.10
2019-05-11T06:18:03.195Z,1.20
2019-05-11T06:20:32.992Z,1.23
2019-05-11T06:23:02.772Z,3.07
2019-05-11T06:25:32.817Z,1.20
2019-05-11T06:28:02.656Z,1.67
2019-05-11T06:30:32.427Z,0.90
2019-05-11T06:33:02.250Z,3.17
2019-05-11T06:35:32.064Z,3.50
2019-05-11T06:38:01.807Z,4.80
2019-05-11T06:40:31.517Z,1.63
2019-05-11T06:43:01.298Z,0.80
2019-05-11T06:45:31.742Z,1.50
2019-05-11T06:48:01.561Z,0.93
2019-05-11T06:50:31.790Z,2.03
2019-05-11T06:53:01.606Z,1.60
2019-05-11T06:55:31.628Z,2.13
2019-05-11T06:58:01.654Z,0.80
2019-05-11T07:00:31.525Z,1.00
2019-05-11T07:03:01.878Z,1.80
2019-05-11T07:05:32.080Z,1.27
2019-05-11T07:08:01.769Z,0.73
2019-05-11T07:10:31.560Z,2.23
2019-05-11T07:13:01.333Z,0.60
2019-05-11T07:15:31.149Z,0.70
2019-05-11T07:18:00.896Z,0.53
2019-05-11T07:20:30.730Z,0.90
2019-05-11T07:23:00.509Z,1.07
2019-05-11T07:25:30.447Z,0.70
2019-05-11T07:28:00.141Z,2.40
2019-05-11T07:30:31.000Z,1.03
2019-05-11T07:33:01.053Z,0.90
2019-05-11T07:35:30.965Z,1.10
2019-05-11T07:38:00.670Z,1.83
2019-05-11T07:40:30.631Z,0.90
2019-05-11T07:43:00.502Z,2.13
2019-05-11T07:45:30.286Z,0.70
2019-05-11T07:48:00.165Z,0.63
2019-05-11T07:50:29.937Z,0.97
2019-05-11T07:52:59.692Z,1.57
2019-05-11T07:55:29.640Z,0.70
2019-05-11T07:57:59.460Z,1.33
2019-05-11T08:00:29.363Z,1.13
2019-05-11T08:02:59.216Z,3.00
2019-05-11T08:05:29.226Z,1.07
2019-05-11T08:07:59.639Z,1.70
2019-05-11T08:10:29.838Z,1.63
2019-05-11T08:12:59.622Z,1.03
2019-05-11T08:15:29.414Z,0.93
2019-05-11T08:17:59.090Z,0.80
2019-05-11T08:20:30.008Z,0.80
2019-05-11T08:22:59.776Z,0.70
2019-05-11T08:25:29.448Z,0.60
2019-05-11T08:27:59.137Z,0.83
2019-05-11T08:30:28.836Z,1.17
2019-05-11T08:32:58.652Z,1.23
2019-05-11T08:35:31.193Z,0.93
2019-05-11T08:37:59.953Z,1.20
2019-05-11T08:40:29.718Z,0.90
2019-05-11T08:42:59.429Z,0.77
2019-05-11T08:45:29.350Z,1.20
2019-05-11T08:47:59.098Z,2.73
2019-05-11T08:50:29.821Z,0.70
2019-05-11T08:52:59.524Z,0.90
2019-05-11T08:55:29.645Z,0.90
2019-05-11T08:57:59.440Z,0.60
2019-05-11T09:00:29.164Z,2.30
2019-05-11T09:02:58.863Z,0.90
2019-05-11T09:05:28.881Z,0.73
2019-05-11T09:07:58.921Z,1.13
2019-05-11T09:10:28.673Z,0.97
2019-05-11T09:12:59.289Z,0.67
2019-05-11T09:15:36.274Z,1.07
2019-05-11T09:18:00.492Z,0.73
2019-05-11T09:20:30.393Z,0.73
2019-05-11T09:23:00.561Z,0.87
2019-05-11T09:25:30.325Z,0.90
2019-05-11T09:28:00.382Z,1.43
2019-05-11T09:30:30.160Z,0.70
2019-05-11T09:32:59.861Z,1.07
2019-05-11T09:35:29.544Z,1.20
2019-05-11T09:37:59.308Z,1.00
2019-05-11T09:40:28.998Z,0.83
2019-05-11T09:42:58.743Z,1.53
2019-05-11T09:45:28.430Z,1.00
2019-05-11T09:47:58.440Z,1.60
2019-05-11T09:50:28.527Z,1.33
2019-05-11T09:52:58.342Z,0.93
2019-05-11T09:55:28.400Z,0.97
2019-05-11T09:57:58.258Z,1.67
2019-05-11T10:00:29.579Z,2.57
2019-05-11T10:02:59.360Z,6.23
2019-05-11T10:05:29.428Z,1.07
2019-05-11T10:07:59.236Z,2.20
2019-05-11T10:10:30.087Z,2.63
2019-05-11T10:12:59.875Z,0.80
2019-05-11T10:15:29.553Z,3.73
2019-05-11T10:17:59.602Z,0.80
2019-05-11T10:20:29.288Z,1.90
2019-05-11T10:23:00.093Z,1.20
2019-05-11T10:25:29.778Z,2.10
2019-05-11T10:27:59.493Z,1.20
2019-05-11T10:30:29.194Z,1.53
2019-05-11T10:32:58.874Z,1.30
2019-05-11T10:35:29.020Z,1.10
2019-05-11T10:37:58.818Z,1.57
2019-05-11T10:40:28.500Z,3.10
2019-05-11T10:42:58.938Z,0.80
2019-05-11T10:45:29.869Z,1.17
2019-05-11T10:48:01.179Z,0.70
2019-05-11T10:50:31.126Z,0.77
2019-05-11T10:53:00.822Z,2.30
2019-05-11T10:55:30.498Z,0.73
2019-05-11T10:58:00.297Z,0.50
2019-05-11T11:00:30.086Z,2.10
2019-05-11T11:02:59.853Z,0.63
2019-05-11T11:05:29.554Z,0.60
2019-05-11T11:07:59.257Z,0.73
2019-05-11T11:10:28.944Z,0.53
2019-05-11T11:12:58.641Z,0.60
2019-05-11T11:15:28.929Z,0.53
2019-05-11T11:17:59.047Z,1.03
2019-05-11T11:20:28.833Z,0.93
2019-05-11T11:22:58.635Z,0.50
2019-05-11T11:25:28.566Z,0.50
2019-05-11T11:27:58.485Z,0.60
2019-05-11T11:30:28.694Z,0.60
2019-05-11T11:32:58.892Z,0.50
2019-05-11T11:35:28.713Z,0.70
2019-05-11T11:37:58.686Z,0.50
2019-05-11T11:40:28.500Z,0.53
2019-05-11T11:42:58.300Z,0.40
2019-05-11T11:45:28.851Z,0.43
2019-05-11T11:47:58.744Z,0.43
2019-05-11T11:50:28.541Z,0.77
2019-05-11T11:52:58.257Z,1.67
2019-05-11T11:55:29.034Z,0.57
2019-05-11T11:57:59.114Z,1.03
2019-05-11T12:00:29.081Z,1.80
2019-05-11T12:02:58.996Z,0.40
2019-05-11T12:05:28.684Z,0.43
2019-05-11T12:07:58.368Z,1.03
2019-05-11T12:10:28.659Z,0.50
2019-05-11T12:12:59.180Z,2.00
2019-05-11T12:15:29.227Z,0.77
2019-05-11T12:17:59.281Z,0.60
2019-05-11T12:20:29.254Z,0.53
2019-05-11T12:22:59.089Z,0.60
2019-05-11T12:25:28.896Z,0.60
2019-05-11T12:27:58.582Z,0.60
2019-05-11T12:30:28.636Z,0.60
2019-05-11T12:32:59.689Z,0.67
2019-05-11T12:35:29.380Z,0.60
2019-05-11T12:37:59.099Z,0.70
2019-05-11T12:40:28.842Z,0.50
2019-05-11T12:42:59.313Z,0.60
2019-05-11T12:45:29.708Z,1.80
2019-05-11T12:47:59.476Z,1.33
2019-05-11T12:50:29.248Z,1.47
2019-05-11T12:52:59.081Z,1.37
2019-05-11T12:55:28.918Z,0.60
2019-05-11T12:57:58.704Z,0.40
2019-05-11T13:00:31.254Z,0.83
2019-05-11T13:02:59.952Z,0.63
2019-05-11T13:05:29.716Z,0.93
2019-05-11T13:07:59.521Z,0.67
2019-05-11T13:10:29.217Z,1.13
2019-05-11T13:12:58.939Z,0.50
2019-05-11T13:15:28.630Z,0.70
2019-05-11T13:17:58.374Z,0.60
2019-05-11T13:20:28.725Z,0.43
2019-05-11T13:22:58.866Z,0.40
2019-05-11T13:25:29.080Z,0.40
2019-05-11T13:27:58.902Z,0.77
2019-05-11T13:30:28.610Z,1.07
2019-05-11T13:32:58.554Z,0.50
2019-05-11T13:35:28.609Z,0.40
2019-05-11T13:37:58.719Z,1.47
2019-05-11T13:40:28.598Z,0.67
2019-05-11T13:42:58.402Z,0.50
2019-05-11T13:45:28.377Z,0.40
2019-05-11T13:47:59.547Z,0.53
2019-05-11T13:50:29.797Z,0.83
2019-05-11T13:52:59.491Z,0.50
2019-05-11T13:55:29.161Z,0.53
2019-05-11T13:57:58.836Z,0.50
2019-05-11T14:00:28.936Z,0.30
2019-05-11T14:03:00.608Z,0.40
2019-05-11T14:05:30.432Z,0.40
2019-05-11T14:08:00.106Z,0.33
2019-05-11T14:10:30.113Z,0.67
2019-05-11T14:12:59.958Z,0.33
2019-05-11T14:15:29.686Z,0.83
2019-05-11T14:18:08.195Z,0.30
2019-05-11T14:20:30.744Z,2.10
2019-05-11T14:23:00.524Z,0.40
2019-05-11T14:25:30.257Z,0.50
2019-05-11T14:27:59.962Z,0.50
2019-05-11T14:30:29.876Z,0.57
2019-05-11T14:32:59.676Z,1.37
2019-05-11T14:35:29.400Z,0.50
2019-05-11T14:37:59.145Z,0.40
2019-05-11T14:40:28.996Z,0.40
2019-05-11T14:42:58.740Z,0.30
2019-05-11T14:45:28.925Z,0.30
2019-05-11T14:47:58.989Z,0.37
2019-05-11T14:50:29.893Z,0.40
2019-05-11T14:52:59.669Z,2.27
2019-05-11T14:55:29.516Z,0.47
2019-05-11T14:57:59.253Z,0.33
2019-05-11T15:00:29.323Z,0.60
2019-05-11T15:02:59.489Z,0.30
2019-05-11T15:05:29.261Z,0.30
2019-05-11T15:07:59.033Z,0.40
2019-05-11T15:10:28.861Z,0.40
2019-05-11T15:12:59.218Z,0.50
2019-05-11T15:15:29.056Z,0.30
2019-05-11T15:17:58.819Z,0.40
2019-05-11T15:20:28.804Z,0.30
2019-05-11T15:22:58.685Z,0.30
2019-05-11T15:25:29.000Z,0.30
2019-05-11T15:27:58.946Z,1.07
2019-05-11T15:30:28.934Z,0.40
2019-05-11T15:32:58.802Z,0.30
2019-05-11T15:35:29.675Z,2.77
2019-05-11T15:37:59.618Z,0.40
2019-05-11T15:40:29.334Z,0.30
2019-05-11T15:42:59.038Z,0.30
2019-05-11T15:45:28.820Z,0.30
2019-05-11T15:47:59.058Z,0.30
2019-05-11T15:50:29.312Z,0.40
2019-05-11T15:53:00.344Z,0.30
2019-05-11T15:55:30.018Z,0.40
2019-05-11T15:58:00.299Z,0.37
2019-05-11T16:00:30.013Z,0.30
2019-05-11T16:03:00.214Z,0.20
2019-05-11T16:05:30.919Z,0.30
2019-05-11T16:08:01.684Z,0.30
2019-05-11T16:10:31.835Z,0.30
2019-05-11T16:13:01.882Z,0.40
2019-05-11T16:15:31.690Z,0.30
2019-05-11T16:18:01.453Z,0.40
2019-05-11T16:20:31.280Z,0.30
2019-05-11T16:23:01.049Z,0.53
2019-05-11T16:25:30.791Z,1.90
2019-05-11T16:28:01.486Z,0.30
2019-05-11T16:30:32.145Z,0.30
2019-05-11T16:33:01.832Z,0.40
2019-05-11T16:35:31.593Z,0.30
2019-05-11T16:38:01.299Z,0.47
2019-05-11T16:40:31.162Z,0.37
2019-05-11T16:43:01.310Z,0.30
2019-05-11T16:45:31.067Z,0.50
2019-05-11T16:48:00.917Z,0.53
2019-05-11T16:50:30.616Z,0.43
2019-05-11T16:53:01.643Z,0.30
2019-05-11T16:55:31.327Z,0.40
2019-05-11T16:58:01.081Z,0.40
2019-05-11T17:00:30.797Z,0.60
2019-05-11T17:03:00.483Z,0.40
2019-05-11T17:05:33.719Z,0.30
2019-05-11T17:08:01.676Z,0.30
2019-05-11T17:10:31.351Z,0.20
2019-05-11T17:13:01.050Z,0.30
2019-05-11T17:15:31.926Z,0.33
2019-05-11T17:18:01.596Z,0.30
2019-05-11T17:20:32.428Z,0.30
2019-05-11T17:23:02.130Z,0.30
2019-05-11T17:25:31.849Z,0.83
2019-05-11T17:28:01.952Z,0.30
2019-05-11T17:30:31.753Z,0.30
2019-05-11T17:33:01.977Z,0.40
2019-05-11T17:35:31.765Z,0.30
2019-05-11T17:38:01.672Z,0.87
2019-05-11T17:40:31.380Z,0.30
2019-05-11T17:43:01.141Z,0.30
2019-05-11T17:45:31.168Z,0.30
2019-05-11T17:48:00.998Z,0.30
2019-05-11T17:50:30.784Z,0.20
2019-05-11T17:53:00.488Z,0.30
2019-05-11T17:55:30.317Z,0.30
2019-05-11T17:58:00.228Z,0.30
2019-05-11T18:00:29.939Z,0.40
2019-05-11T18:02:59.740Z,0.40
2019-05-11T18:05:29.482Z,0.87
2019-05-11T18:07:59.299Z,0.60
2019-05-11T18:10:29.093Z,0.50
2019-05-11T18:12:58.908Z,0.40
2019-05-11T18:15:28.644Z,0.30
2019-05-11T18:17:58.873Z,0.30
2019-05-11T18:20:28.841Z,0.30
2019-05-11T18:22:58.982Z,0.40
2019-05-11T18:25:29.158Z,0.57
2019-05-11T18:27:59.281Z,0.30
2019-05-11T18:30:29.545Z,0.37
2019-05-11T18:33:00.616Z,0.40
2019-05-11T18:35:30.925Z,0.30
2019-05-11T18:38:01.073Z,4.63
2019-05-11T18:40:30.884Z,0.37
2019-05-11T18:43:00.634Z,0.40
2019-05-11T18:45:30.426Z,0.30
2019-05-11T18:48:00.252Z,0.30
2019-05-11T18:50:31.300Z,0.30
2019-05-11T18:53:01.188Z,0.60
2019-05-11T18:55:30.955Z,0.50
2019-05-11T18:58:00.648Z,0.57
2019-05-11T19:00:31.590Z,0.30
2019-05-11T19:03:01.273Z,0.40
2019-05-11T19:05:31.092Z,0.47
2019-05-11T19:08:00.921Z,0.30
2019-05-11T19:10:30.977Z,0.60
2019-05-11T19:13:00.714Z,0.50
2019-05-11T19:15:30.564Z,0.40
2019-05-11T19:18:00.320Z,0.77
2019-05-11T19:20:43.384Z,0.50
2019-05-11T19:23:02.050Z,0.60
2019-05-11T19:25:31.733Z,0.60
2019-05-11T19:28:01.510Z,0.40
2019-05-11T19:30:31.180Z,0.60
2019-05-11T19:33:01.053Z,0.40
2019-05-11T19:35:30.877Z,0.50
2019-05-11T19:38:00.536Z,0.57
2019-05-11T19:40:30.285Z,1.13
2019-05-11T19:43:00.062Z,0.60
2019-05-11T19:45:30.160Z,0.43
2019-05-11T19:47:59.880Z,0.40
2019-05-11T19:50:29.941Z,0.40
2019-05-11T19:52:59.887Z,0.40
2019-05-11T19:55:30.199Z,0.50
2019-05-11T19:58:00.341Z,0.30
2019-05-11T20:00:30.154Z,0.50
2019-05-11T20:02:59.941Z,0.33
2019-05-11T20:05:29.759Z,0.30
2019-05-11T20:08:00.468Z,0.30
2019-05-11T20:10:30.329Z,0.40
2019-05-11T20:13:00.177Z,0.40
2019-05-11T20:15:30.089Z,0.40
2019-05-11T20:17:59.821Z,0.50
2019-05-11T20:20:29.605Z,0.40
2019-05-11T20:22:59.389Z,0.30
2019-05-11T20:25:29.213Z,0.50
2019-05-11T20:27:58.894Z,0.40
2019-05-11T20:30:28.744Z,0.43
2019-05-11T20:32:58.453Z,0.50
2019-05-11T20:35:28.437Z,0.43
2019-05-11T20:37:59.261Z,0.60
2019-05-11T20:40:29.098Z,0.50
2019-05-11T20:42:58.958Z,0.60
2019-05-11T20:45:28.860Z,0.50
2019-05-11T20:47:59.853Z,0.50
2019-05-11T20:50:29.902Z,0.50
2019-05-11T20:52:59.678Z,0.77
2019-05-11T20:55:29.382Z,0.40
2019-05-11T20:57:59.167Z,0.50
2019-05-11T21:00:29.082Z,0.50
2019-05-11T21:02:59.044Z,0.40
2019-05-11T21:05:28.832Z,0.40
2019-05-11T21:07:58.550Z,0.50
2019-05-11T21:10:28.750Z,0.30
2019-05-11T21:12:58.706Z,0.43
2019-05-11T21:15:28.412Z,0.40
2019-05-11T21:17:58.741Z,0.50
2019-05-11T21:20:29.015Z,0.60
2019-05-11T21:22:58.934Z,0.90
2019-05-11T21:25:29.003Z,0.60
2019-05-11T21:27:58.924Z,0.83
2019-05-11T21:30:28.610Z,0.67
2019-05-11T21:32:58.452Z,0.67
2019-05-11T21:35:28.510Z,0.63
2019-05-11T21:37:58.236Z,0.70
2019-05-11T21:40:28.916Z,0.57
2019-05-11T21:42:59.618Z,0.60
2019-05-11T21:45:29.405Z,0.90
2019-05-11T21:47:59.130Z,0.77
2019-05-11T21:50:28.820Z,1.03
2019-05-11T21:52:59.080Z,0.93
2019-05-11T21:55:29.407Z,0.80
2019-05-11T21:57:59.274Z,1.03
2019-05-11T22:00:30.513Z,1.70
2019-05-11T22:03:01.866Z,1.10
2019-05-11T22:05:32.710Z,1.13
2019-05-11T22:08:02.448Z,1.60
2019-05-11T22:10:32.184Z,1.37
2019-05-11T22:13:01.940Z,1.50
2019-05-11T22:15:31.713Z,1.80
2019-05-11T22:18:01.405Z,1.77
2019-05-11T22:20:31.171Z,2.07
2019-05-11T22:23:00.872Z,2.93
2019-05-11T22:25:30.590Z,1.90
2019-05-11T22:28:00.484Z,1.53
2019-05-11T22:30:30.192Z,3.53
2019-05-11T22:32:59.961Z,2.27
2019-05-11T22:35:29.822Z,2.40
2019-05-11T22:37:59.506Z,4.13
2019-05-11T22:40:29.337Z,2.37
2019-05-11T22:43:01.234Z,1.67
2019-05-11T22:45:31.037Z,2.47
2019-05-11T22:48:00.749Z,2.70
2019-05-11T22:50:30.533Z,2.87
2019-05-11T22:53:00.241Z,1.80
2019-05-11T22:55:30.155Z,2.93
2019-05-11T22:57:59.981Z,3.17
2019-05-11T23:00:39.073Z,2.33
2019-05-11T23:03:11.044Z,2.33
2019-05-11T23:05:41.181Z,2.53
2019-05-11T23:08:11.028Z,3.03
2019-05-11T23:10:40.932Z,1.83
2019-05-11T23:13:11.493Z,4.27
2019-05-11T23:15:41.588Z,4.50
2019-05-11T23:18:11.344Z,3.23
2019-05-11T23:20:41.095Z,2.10
2019-05-11T23:23:11.040Z,4.17
2019-05-11T23:25:40.859Z,2.80
2019-05-11T23:28:10.550Z,3.33
2019-05-11T23:30:41.322Z,4.47
2019-05-11T23:33:11.317Z,5.37
2019-05-11T23:35:41.040Z,8.60
2019-05-11T23:38:11.144Z,4.30
2019-05-11T23:40:40.868Z,3.67
2019-05-11T23:43:10.633Z,4.83
2019-05-11T23:45:40.404Z,5.80
2019-05-11T23:48:10.506Z,5.50
2019-05-11T23:50:40.597Z,4.70
2019-05-11T23:53:10.625Z,5.33
2019-05-11T23:55:40.597Z,6.60
2019-05-11T23:58:10.328Z,5.53
